sensor_id;sensor_type;location;lat;lon;timestamp;P1;durP1;ratioP1;P2;durP2;ratioP2
2760;SDS011;15420;48.636;9.798;2022-10-16T00:01:27;1.20;;;1.10;;
2760;SDS011;15420;48.636;9.798;2022-10-16T00:03:54;2.90;;;1.77;;
2760;SDS011;15420;48.636;9.798;2022-10-16T00:06:22;2.17;;;1.17;;
2760;SDS011;15420;48.636;9.798;2022-10-16T00:08:49;2.33;;;1.50;;
2760;SDS011;15420;48.636;9.798;2022-10-16T00:11:19;1.60;;;1.50;;
2760;SDS011;15420;48.636;9.798;2022-10-16T00:13:48;1.40;;;1.30;;
2760;SDS011;15420;48.636;9.798;2022-10-16T00:16:17;2.40;;;1.13;;
2760;SDS011;15420;48.636;9.798;2022-10-16T00:18:44;1.40;;;1.30;;
2760;SDS011;15420;48.636;9.798;2022-10-16T00:21:13;2.50;;;1.37;;
2760;SDS011;15420;48.636;9.798;2022-10-16T00:23:54;2.17;;;1.50;;
2760;SDS011;15420;48.636;9.798;2022-10-16T00:26:26;1.57;;;1.40;;
2760;SDS011;15420;48.636;9.798;2022-10-16T00:28:53;3.20;;;1.50;;
2760;SDS011;15420;48.636;9.798;2022-10-16T00:31:20;1.50;;;1.40;;
2760;SDS011;15420;48.636;9.798;2022-10-16T00:33:49;2.83;;;2.03;;
2760;SDS011;15420;48.636;9.798;2022-10-16T00:36:19;1.43;;;1.30;;
2760;SDS011;15420;48.636;9.798;2022-10-16T00:38:49;1.60;;;1.50;;
2760;SDS011;15420;48.636;9.798;2022-10-16T00:41:19;1.23;;;1.13;;
2760;SDS011;15420;48.636;9.798;2022-10-16T00:43:57;4.40;;;1.47;;
2760;SDS011;15420;48.636;9.798;2022-10-16T00:51:38;1.17;;;1.10;;
2760;SDS011;15420;48.636;9.798;2022-10-16T00:54:11;2.93;;;1.40;;
2760;SDS011;15420;48.636;9.798;2022-10-16T00:56:44;2.10;;;1.30;;
2760;SDS011;15420;48.636;9.798;2022-10-16T00:59:15;1.90;;;1.27;;
2760;SDS011;15420;48.636;9.798;2022-10-16T01:01:45;2.40;;;1.53;;
2760;SDS011;15420;48.636;9.798;2022-10-16T01:04:14;1.40;;;1.30;;
2760;SDS011;15420;48.636;9.798;2022-10-16T01:09:16;1.30;;;1.20;;
2760;SDS011;15420;48.636;9.798;2022-10-16T01:11:53;1.50;;;1.40;;
2760;SDS011;15420;48.636;9.798;2022-10-16T01:17:41;2.80;;;1.20;;
2760;SDS011;15420;48.636;9.798;2022-10-16T01:20:31;1.10;;;1.00;;
2760;SDS011;15420;48.636;9.798;2022-10-16T01:23:26;1.47;;;1.03;;
2760;SDS011;15420;48.636;9.798;2022-10-16T01:29:26;1.30;;;1.20;;
2760;SDS011;15420;48.636;9.798;2022-10-16T01:31:34;1.90;;;1.40;;
2760;SDS011;15420;48.636;9.798;2022-10-16T01:34:10;4.07;;;0.90;;
2760;SDS011;15420;48.636;9.798;2022-10-16T01:36:50;1.17;;;1.07;;
2760;SDS011;15420;48.636;9.798;2022-10-16T01:39:24;3.80;;;1.77;;
2760;SDS011;15420;48.636;9.798;2022-10-16T01:42:07;1.50;;;1.40;;
2760;SDS011;15420;48.636;9.798;2022-10-16T01:44:42;1.63;;;1.10;;
2760;SDS011;15420;48.636;9.798;2022-10-16T01:47:11;1.20;;;1.10;;
2760;SDS011;15420;48.636;9.798;2022-10-16T01:49:40;2.87;;;1.10;;
2760;SDS011;15420;48.636;9.798;2022-10-16T01:52:13;1.10;;;1.10;;
2760;SDS011;15420;48.636;9.798;2022-10-16T01:54:47;3.97;;;2.10;;
2760;SDS011;15420;48.636;9.798;2022-10-16T01:57:17;1.40;;;1.30;;
2760;SDS011;15420;48.636;9.798;2022-10-16T01:59:47;1.10;;;1.00;;
2760;SDS011;15420;48.636;9.798;2022-10-16T02:02:17;1.43;;;1.33;;
2760;SDS011;15420;48.636;9.798;2022-10-16T02:04:46;1.73;;;1.30;;
2760;SDS011;15420;48.636;9.798;2022-10-16T02:07:19;1.87;;;1.20;;
2760;SDS011;15420;48.636;9.798;2022-10-16T02:09:49;2.10;;;1.20;;
2760;SDS011;15420;48.636;9.798;2022-10-16T02:12:31;5.63;;;2.37;;
2760;SDS011;15420;48.636;9.798;2022-10-16T02:15:00;4.53;;;1.20;;
2760;SDS011;15420;48.636;9.798;2022-10-16T02:17:26;1.73;;;1.47;;
2760;SDS011;15420;48.636;9.798;2022-10-16T02:19:53;2.43;;;1.60;;
2760;SDS011;15420;48.636;9.798;2022-10-16T02:22:43;1.77;;;1.37;;
2760;SDS011;15420;48.636;9.798;2022-10-16T02:25:19;2.63;;;1.43;;
2760;SDS011;15420;48.636;9.798;2022-10-16T02:33:09;2.50;;;1.57;;
2760;SDS011;15420;48.636;9.798;2022-10-16T02:35:41;8.43;;;1.70;;
2760;SDS011;15420;48.636;9.798;2022-10-16T02:38:11;1.40;;;1.30;;
2760;SDS011;15420;48.636;9.798;2022-10-16T02:40:40;3.10;;;1.40;;
2760;SDS011;15420;48.636;9.798;2022-10-16T02:43:07;1.30;;;1.20;;
2760;SDS011;15420;48.636;9.798;2022-10-16T02:45:36;2.60;;;1.60;;
2760;SDS011;15420;48.636;9.798;2022-10-16T02:48:03;4.83;;;1.40;;
2760;SDS011;15420;48.636;9.798;2022-10-16T02:50:29;2.13;;;1.50;;
2760;SDS011;15420;48.636;9.798;2022-10-16T02:52:55;2.40;;;1.40;;
2760;SDS011;15420;48.636;9.798;2022-10-16T02:55:21;2.03;;;1.30;;
2760;SDS011;15420;48.636;9.798;2022-10-16T02:57:51;2.83;;;1.17;;
2760;SDS011;15420;48.636;9.798;2022-10-16T03:00:20;1.30;;;1.20;;
2760;SDS011;15420;48.636;9.798;2022-10-16T03:02:49;1.40;;;1.30;;
2760;SDS011;15420;48.636;9.798;2022-10-16T03:05:15;2.30;;;1.60;;
2760;SDS011;15420;48.636;9.798;2022-10-16T03:07:41;1.53;;;1.43;;
2760;SDS011;15420;48.636;9.798;2022-10-16T03:10:10;2.10;;;1.23;;
2760;SDS011;15420;48.636;9.798;2022-10-16T03:12:36;1.20;;;1.10;;
2760;SDS011;15420;48.636;9.798;2022-10-16T03:15:04;1.40;;;1.30;;
2760;SDS011;15420;48.636;9.798;2022-10-16T03:17:32;1.67;;;1.57;;
2760;SDS011;15420;48.636;9.798;2022-10-16T03:19:58;2.53;;;1.23;;
2760;SDS011;15420;48.636;9.798;2022-10-16T03:22:29;4.97;;;1.50;;
2760;SDS011;15420;48.636;9.798;2022-10-16T03:24:55;1.80;;;1.53;;
2760;SDS011;15420;48.636;9.798;2022-10-16T03:27:25;1.70;;;1.60;;
2760;SDS011;15420;48.636;9.798;2022-10-16T03:29:53;2.10;;;1.23;;
2760;SDS011;15420;48.636;9.798;2022-10-16T03:32:20;4.20;;;1.10;;
2760;SDS011;15420;48.636;9.798;2022-10-16T03:34:46;1.60;;;1.47;;
2760;SDS011;15420;48.636;9.798;2022-10-16T03:37:17;1.47;;;1.37;;
2760;SDS011;15420;48.636;9.798;2022-10-16T03:39:44;1.70;;;1.23;;
2760;SDS011;15420;48.636;9.798;2022-10-16T03:42:12;2.97;;;1.50;;
2760;SDS011;15420;48.636;9.798;2022-10-16T03:44:38;4.40;;;1.53;;
2760;SDS011;15420;48.636;9.798;2022-10-16T03:47:04;1.83;;;1.67;;
2760;SDS011;15420;48.636;9.798;2022-10-16T03:49:30;1.50;;;1.40;;
2760;SDS011;15420;48.636;9.798;2022-10-16T03:51:59;2.70;;;1.43;;
2760;SDS011;15420;48.636;9.798;2022-10-16T03:54:25;1.60;;;1.50;;
2760;SDS011;15420;48.636;9.798;2022-10-16T03:56:53;2.40;;;1.50;;
2760;SDS011;15420;48.636;9.798;2022-10-16T03:59:19;1.53;;;1.43;;
2760;SDS011;15420;48.636;9.798;2022-10-16T04:01:46;1.33;;;1.23;;
2760;SDS011;15420;48.636;9.798;2022-10-16T04:04:12;4.00;;;1.53;;
2760;SDS011;15420;48.636;9.798;2022-10-16T04:06:38;3.73;;;1.57;;
2760;SDS011;15420;48.636;9.798;2022-10-16T04:09:06;1.40;;;1.30;;
2760;SDS011;15420;48.636;9.798;2022-10-16T04:11:44;2.30;;;1.80;;
2760;SDS011;15420;48.636;9.798;2022-10-16T04:14:10;2.60;;;1.63;;
2760;SDS011;15420;48.636;9.798;2022-10-16T04:16:37;3.43;;;1.53;;
2760;SDS011;15420;48.636;9.798;2022-10-16T04:19:08;1.77;;;1.30;;
2760;SDS011;15420;48.636;9.798;2022-10-16T04:21:35;1.70;;;1.60;;
2760;SDS011;15420;48.636;9.798;2022-10-16T04:26:55;1.37;;;1.27;;
2760;SDS011;15420;48.636;9.798;2022-10-16T04:29:22;1.70;;;1.60;;
2760;SDS011;15420;48.636;9.798;2022-10-16T04:31:48;1.53;;;1.20;;
2760;SDS011;15420;48.636;9.798;2022-10-16T04:34:16;2.90;;;1.40;;
2760;SDS011;15420;48.636;9.798;2022-10-16T04:36:42;1.97;;;1.27;;
2760;SDS011;15420;48.636;9.798;2022-10-16T04:39:09;5.10;;;1.83;;
2760;SDS011;15420;48.636;9.798;2022-10-16T04:41:35;1.40;;;1.30;;
2760;SDS011;15420;48.636;9.798;2022-10-16T04:44:01;1.70;;;1.60;;
2760;SDS011;15420;48.636;9.798;2022-10-16T04:46:27;1.70;;;1.60;;
2760;SDS011;15420;48.636;9.798;2022-10-16T04:48:58;2.30;;;2.13;;
2760;SDS011;15420;48.636;9.798;2022-10-16T04:51:24;2.60;;;2.37;;
2760;SDS011;15420;48.636;9.798;2022-10-16T04:53:51;2.07;;;1.97;;
2760;SDS011;15420;48.636;9.798;2022-10-16T04:56:22;4.50;;;1.87;;
2760;SDS011;15420;48.636;9.798;2022-10-16T04:58:57;1.83;;;1.73;;
2760;SDS011;15420;48.636;9.798;2022-10-16T05:01:28;2.27;;;1.80;;
2760;SDS011;15420;48.636;9.798;2022-10-16T05:03:57;3.90;;;2.07;;
2760;SDS011;15420;48.636;9.798;2022-10-16T05:06:26;5.77;;;1.77;;
2760;SDS011;15420;48.636;9.798;2022-10-16T05:08:52;1.53;;;1.43;;
2760;SDS011;15420;48.636;9.798;2022-10-16T05:11:18;1.90;;;1.70;;
2760;SDS011;15420;48.636;9.798;2022-10-16T05:13:46;1.93;;;1.83;;
2760;SDS011;15420;48.636;9.798;2022-10-16T05:16:15;1.80;;;1.70;;
2760;SDS011;15420;48.636;9.798;2022-10-16T05:18:43;1.60;;;1.50;;
2760;SDS011;15420;48.636;9.798;2022-10-16T05:21:12;2.80;;;2.43;;
2760;SDS011;15420;48.636;9.798;2022-10-16T05:23:38;8.10;;;1.77;;
2760;SDS011;15420;48.636;9.798;2022-10-16T05:26:07;1.93;;;1.80;;
2760;SDS011;15420;48.636;9.798;2022-10-16T05:28:33;3.70;;;2.03;;
2760;SDS011;15420;48.636;9.798;2022-10-16T05:31:03;2.30;;;1.47;;
2760;SDS011;15420;48.636;9.798;2022-10-16T05:33:33;2.10;;;1.60;;
2760;SDS011;15420;48.636;9.798;2022-10-16T05:36:04;1.60;;;1.50;;
2760;SDS011;15420;48.636;9.798;2022-10-16T05:38:32;2.00;;;1.43;;
2760;SDS011;15420;48.636;9.798;2022-10-16T05:40:59;1.33;;;1.23;;
2760;SDS011;15420;48.636;9.798;2022-10-16T05:43:28;1.80;;;1.70;;
2760;SDS011;15420;48.636;9.798;2022-10-16T05:45:59;1.77;;;1.47;;
2760;SDS011;15420;48.636;9.798;2022-10-16T05:48:29;1.80;;;1.70;;
2760;SDS011;15420;48.636;9.798;2022-10-16T05:51:03;1.50;;;1.40;;
2760;SDS011;15420;48.636;9.798;2022-10-16T05:53:38;2.13;;;1.70;;
2760;SDS011;15420;48.636;9.798;2022-10-16T05:56:06;4.07;;;1.83;;
2760;SDS011;15420;48.636;9.798;2022-10-16T05:58:35;1.50;;;1.30;;
2760;SDS011;15420;48.636;9.798;2022-10-16T06:01:06;2.00;;;1.80;;
2760;SDS011;15420;48.636;9.798;2022-10-16T06:03:40;2.60;;;1.90;;
2760;SDS011;15420;48.636;9.798;2022-10-16T06:08:38;2.03;;;1.93;;
2760;SDS011;15420;48.636;9.798;2022-10-16T06:11:08;2.33;;;1.90;;
2760;SDS011;15420;48.636;9.798;2022-10-16T06:13:36;1.50;;;1.43;;
2760;SDS011;15420;48.636;9.798;2022-10-16T06:16:03;3.27;;;2.60;;
2760;SDS011;15420;48.636;9.798;2022-10-16T06:18:30;3.50;;;2.17;;
2760;SDS011;15420;48.636;9.798;2022-10-16T06:20:56;2.30;;;2.10;;
2760;SDS011;15420;48.636;9.798;2022-10-16T06:23:28;2.33;;;1.80;;
2760;SDS011;15420;48.636;9.798;2022-10-16T06:26:03;1.90;;;1.73;;
2760;SDS011;15420;48.636;9.798;2022-10-16T06:28:41;1.90;;;1.50;;
2760;SDS011;15420;48.636;9.798;2022-10-16T06:31:08;1.77;;;1.67;;
2760;SDS011;15420;48.636;9.798;2022-10-16T06:33:36;1.67;;;1.57;;
2760;SDS011;15420;48.636;9.798;2022-10-16T06:36:04;1.70;;;1.60;;
2760;SDS011;15420;48.636;9.798;2022-10-16T06:38:34;2.57;;;2.00;;
2760;SDS011;15420;48.636;9.798;2022-10-16T06:41:04;2.13;;;1.90;;
2760;SDS011;15420;48.636;9.798;2022-10-16T06:43:30;7.53;;;1.50;;
2760;SDS011;15420;48.636;9.798;2022-10-16T06:45:58;2.30;;;2.10;;
2760;SDS011;15420;48.636;9.798;2022-10-16T06:48:25;1.50;;;1.40;;
2760;SDS011;15420;48.636;9.798;2022-10-16T06:50:55;3.13;;;1.63;;
2760;SDS011;15420;48.636;9.798;2022-10-16T06:53:28;1.43;;;1.33;;
2760;SDS011;15420;48.636;9.798;2022-10-16T06:56:01;1.60;;;1.50;;
2760;SDS011;15420;48.636;9.798;2022-10-16T06:58:36;1.73;;;1.60;;
2760;SDS011;15420;48.636;9.798;2022-10-16T07:01:07;2.80;;;1.73;;
2760;SDS011;15420;48.636;9.798;2022-10-16T07:03:37;1.87;;;1.70;;
2760;SDS011;15420;48.636;9.798;2022-10-16T07:06:05;1.57;;;1.47;;
2760;SDS011;15420;48.636;9.798;2022-10-16T07:08:33;2.10;;;1.30;;
2760;SDS011;15420;48.636;9.798;2022-10-16T07:11:02;2.63;;;1.73;;
2760;SDS011;15420;48.636;9.798;2022-10-16T07:13:35;3.10;;;2.07;;
2760;SDS011;15420;48.636;9.798;2022-10-16T07:16:09;2.70;;;2.30;;
2760;SDS011;15420;48.636;9.798;2022-10-16T07:18:37;2.63;;;1.87;;
2760;SDS011;15420;48.636;9.798;2022-10-16T07:21:23;1.73;;;1.63;;
2760;SDS011;15420;48.636;9.798;2022-10-16T07:23:54;3.03;;;1.37;;
2760;SDS011;15420;48.636;9.798;2022-10-16T07:26:32;2.30;;;2.10;;
2760;SDS011;15420;48.636;9.798;2022-10-16T07:29:01;1.40;;;1.30;;
2760;SDS011;15420;48.636;9.798;2022-10-16T07:31:28;2.00;;;1.63;;
2760;SDS011;15420;48.636;9.798;2022-10-16T07:33:54;1.87;;;1.67;;
2760;SDS011;15420;48.636;9.798;2022-10-16T07:36:24;1.60;;;1.50;;
2760;SDS011;15420;48.636;9.798;2022-10-16T07:38:53;2.17;;;1.60;;
2760;SDS011;15420;48.636;9.798;2022-10-16T07:41:19;2.13;;;1.93;;
2760;SDS011;15420;48.636;9.798;2022-10-16T07:43:51;2.17;;;1.57;;
2760;SDS011;15420;48.636;9.798;2022-10-16T07:46:19;1.77;;;1.63;;
2760;SDS011;15420;48.636;9.798;2022-10-16T07:48:48;1.90;;;1.40;;
2760;SDS011;15420;48.636;9.798;2022-10-16T07:51:16;1.40;;;1.30;;
2760;SDS011;15420;48.636;9.798;2022-10-16T07:53:44;2.20;;;1.77;;
2760;SDS011;15420;48.636;9.798;2022-10-16T07:56:11;2.50;;;2.00;;
2760;SDS011;15420;48.636;9.798;2022-10-16T07:58:38;1.63;;;1.50;;
2760;SDS011;15420;48.636;9.798;2022-10-16T08:01:08;2.27;;;2.00;;
2760;SDS011;15420;48.636;9.798;2022-10-16T08:03:36;2.30;;;1.63;;
2760;SDS011;15420;48.636;9.798;2022-10-16T08:06:02;1.87;;;1.77;;
2760;SDS011;15420;48.636;9.798;2022-10-16T08:08:29;1.83;;;1.73;;
2760;SDS011;15420;48.636;9.798;2022-10-16T08:10:55;1.50;;;1.40;;
2760;SDS011;15420;48.636;9.798;2022-10-16T08:13:25;1.70;;;1.60;;
2760;SDS011;15420;48.636;9.798;2022-10-16T08:16:14;1.50;;;1.40;;
2760;SDS011;15420;48.636;9.798;2022-10-16T08:18:48;1.63;;;1.53;;
2760;SDS011;15420;48.636;9.798;2022-10-16T08:21:26;1.50;;;1.40;;
2760;SDS011;15420;48.636;9.798;2022-10-16T08:23:53;1.50;;;1.40;;
2760;SDS011;15420;48.636;9.798;2022-10-16T08:26:20;1.90;;;1.63;;
2760;SDS011;15420;48.636;9.798;2022-10-16T08:28:51;3.30;;;2.20;;
2760;SDS011;15420;48.636;9.798;2022-10-16T08:31:17;2.67;;;2.47;;
2760;SDS011;15420;48.636;9.798;2022-10-16T08:33:44;2.80;;;2.60;;
2760;SDS011;15420;48.636;9.798;2022-10-16T08:36:12;3.07;;;2.87;;
2760;SDS011;15420;48.636;9.798;2022-10-16T08:38:39;2.67;;;2.47;;
2760;SDS011;15420;48.636;9.798;2022-10-16T08:43:59;1.80;;;1.70;;
2760;SDS011;15420;48.636;9.798;2022-10-16T08:46:48;1.73;;;1.63;;
2760;SDS011;15420;48.636;9.798;2022-10-16T08:49:23;1.90;;;1.80;;
2760;SDS011;15420;48.636;9.798;2022-10-16T08:51:49;1.50;;;1.40;;
2760;SDS011;15420;48.636;9.798;2022-10-16T08:54:34;1.53;;;1.40;;
2760;SDS011;15420;48.636;9.798;2022-10-16T08:59:39;3.00;;;2.17;;
2760;SDS011;15420;48.636;9.798;2022-10-16T09:02:19;6.33;;;4.37;;
2760;SDS011;15420;48.636;9.798;2022-10-16T09:10:20;8.33;;;5.00;;
2760;SDS011;15420;48.636;9.798;2022-10-16T09:18:48;3.43;;;3.10;;
2760;SDS011;15420;48.636;9.798;2022-10-16T09:21:35;3.07;;;2.57;;
2760;SDS011;15420;48.636;9.798;2022-10-16T09:24:18;2.07;;;1.97;;
2760;SDS011;15420;48.636;9.798;2022-10-16T09:26:50;2.47;;;2.27;;
2760;SDS011;15420;48.636;9.798;2022-10-16T09:29:17;2.40;;;2.20;;
2760;SDS011;15420;48.636;9.798;2022-10-16T09:31:49;2.33;;;2.10;;
2760;SDS011;15420;48.636;9.798;2022-10-16T09:34:20;1.80;;;1.70;;
2760;SDS011;15420;48.636;9.798;2022-10-16T09:36:55;2.93;;;1.97;;
2760;SDS011;15420;48.636;9.798;2022-10-16T09:39:24;2.73;;;2.17;;
2760;SDS011;15420;48.636;9.798;2022-10-16T09:41:50;2.43;;;2.20;;
2760;SDS011;15420;48.636;9.798;2022-10-16T09:44:29;1.53;;;1.43;;
2760;SDS011;15420;48.636;9.798;2022-10-16T09:47:11;1.93;;;1.80;;
2760;SDS011;15420;48.636;9.798;2022-10-16T09:52:27;1.57;;;1.47;;
2760;SDS011;15420;48.636;9.798;2022-10-16T09:54:55;1.93;;;1.70;;
2760;SDS011;15420;48.636;9.798;2022-10-16T09:57:22;1.80;;;1.50;;
2760;SDS011;15420;48.636;9.798;2022-10-16T09:59:50;6.63;;;1.87;;
2760;SDS011;15420;48.636;9.798;2022-10-16T10:02:34;1.60;;;1.50;;
2760;SDS011;15420;48.636;9.798;2022-10-16T10:05:04;1.97;;;1.40;;
2760;SDS011;15420;48.636;9.798;2022-10-16T10:07:42;1.73;;;1.40;;
2760;SDS011;15420;48.636;9.798;2022-10-16T10:10:22;1.30;;;1.20;;
2760;SDS011;15420;48.636;9.798;2022-10-16T10:12:55;1.50;;;1.40;;
2760;SDS011;15420;48.636;9.798;2022-10-16T10:15:23;4.00;;;1.63;;
2760;SDS011;15420;48.636;9.798;2022-10-16T10:17:55;3.07;;;1.47;;
2760;SDS011;15420;48.636;9.798;2022-10-16T10:22:55;1.50;;;1.40;;
2760;SDS011;15420;48.636;9.798;2022-10-16T10:25:26;1.70;;;1.60;;
2760;SDS011;15420;48.636;9.798;2022-10-16T10:35:56;1.63;;;1.53;;
2760;SDS011;15420;48.636;9.798;2022-10-16T10:38:34;1.57;;;1.47;;
2760;SDS011;15420;48.636;9.798;2022-10-16T10:41:22;2.50;;;1.70;;
2760;SDS011;15420;48.636;9.798;2022-10-16T10:52:26;2.53;;;1.60;;
2760;SDS011;15420;48.636;9.798;2022-10-16T11:06:36;1.90;;;1.70;;
2760;SDS011;15420;48.636;9.798;2022-10-16T11:14:23;1.70;;;1.60;;
2760;SDS011;15420;48.636;9.798;2022-10-16T11:17:13;2.50;;;2.00;;
2760;SDS011;15420;48.636;9.798;2022-10-16T11:22:36;1.40;;;1.30;;
2760;SDS011;15420;48.636;9.798;2022-10-16T11:25:14;4.70;;;1.37;;
2760;SDS011;15420;48.636;9.798;2022-10-16T11:30:31;1.57;;;1.40;;
2760;SDS011;15420;48.636;9.798;2022-10-16T11:44:24;1.77;;;1.60;;
2760;SDS011;15420;48.636;9.798;2022-10-16T11:55:44;2.20;;;1.60;;
2760;SDS011;15420;48.636;9.798;2022-10-16T12:08:41;2.80;;;1.80;;
2760;SDS011;15420;48.636;9.798;2022-10-16T12:16:30;1.73;;;1.40;;
2760;SDS011;15420;48.636;9.798;2022-10-16T12:19:30;1.20;;;1.10;;
2760;SDS011;15420;48.636;9.798;2022-10-16T12:21:53;1.03;;;1.03;;
2760;SDS011;15420;48.636;9.798;2022-10-16T12:26:53;1.33;;;1.20;;
2760;SDS011;15420;48.636;9.798;2022-10-16T12:32:00;1.63;;;1.53;;
2760;SDS011;15420;48.636;9.798;2022-10-16T12:34:46;1.50;;;1.40;;
2760;SDS011;15420;48.636;9.798;2022-10-16T12:37:23;3.03;;;1.50;;
2760;SDS011;15420;48.636;9.798;2022-10-16T12:40:11;1.73;;;1.53;;
2760;SDS011;15420;48.636;9.798;2022-10-16T12:42:38;2.20;;;1.23;;
2760;SDS011;15420;48.636;9.798;2022-10-16T12:45:26;1.63;;;1.17;;
2760;SDS011;15420;48.636;9.798;2022-10-16T12:47:51;4.50;;;2.87;;
2760;SDS011;15420;48.636;9.798;2022-10-16T12:50:26;2.23;;;1.40;;
2760;SDS011;15420;48.636;9.798;2022-10-16T12:53:02;1.90;;;1.00;;
2760;SDS011;15420;48.636;9.798;2022-10-16T13:04:20;1.40;;;1.20;;
2760;SDS011;15420;48.636;9.798;2022-10-16T13:07:05;1.93;;;1.40;;
2760;SDS011;15420;48.636;9.798;2022-10-16T13:21:01;2.03;;;1.13;;
2760;SDS011;15420;48.636;9.798;2022-10-16T13:29:17;2.60;;;1.20;;
2760;SDS011;15420;48.636;9.798;2022-10-16T13:31:47;3.70;;;1.30;;
2760;SDS011;15420;48.636;9.798;2022-10-16T13:34:17;1.97;;;1.13;;
2760;SDS011;15420;48.636;9.798;2022-10-16T13:36:50;1.90;;;0.80;;
2760;SDS011;15420;48.636;9.798;2022-10-16T13:39:22;1.27;;;1.17;;
2760;SDS011;15420;48.636;9.798;2022-10-16T13:44:40;1.37;;;1.27;;
2760;SDS011;15420;48.636;9.798;2022-10-16T13:47:15;1.47;;;1.20;;
2760;SDS011;15420;48.636;9.798;2022-10-16T13:49:44;0.90;;;0.90;;
2760;SDS011;15420;48.636;9.798;2022-10-16T13:52:17;2.00;;;1.00;;
2760;SDS011;15420;48.636;9.798;2022-10-16T13:54:47;1.37;;;0.87;;
2760;SDS011;15420;48.636;9.798;2022-10-16T13:57:18;1.33;;;0.90;;
2760;SDS011;15420;48.636;9.798;2022-10-16T13:59:50;4.20;;;1.50;;
2760;SDS011;15420;48.636;9.798;2022-10-16T14:02:31;1.57;;;1.07;;
2760;SDS011;15420;48.636;9.798;2022-10-16T14:05:02;2.60;;;1.63;;
2760;SDS011;15420;48.636;9.798;2022-10-16T14:07:34;3.37;;;1.00;;
2760;SDS011;15420;48.636;9.798;2022-10-16T14:10:04;2.80;;;0.97;;
2760;SDS011;15420;48.636;9.798;2022-10-16T14:12:43;1.47;;;1.00;;
2760;SDS011;15420;48.636;9.798;2022-10-16T14:15:18;1.60;;;1.00;;
2760;SDS011;15420;48.636;9.798;2022-10-16T14:17:45;1.07;;;0.90;;
2760;SDS011;15420;48.636;9.798;2022-10-16T14:20:14;1.00;;;0.90;;
2760;SDS011;15420;48.636;9.798;2022-10-16T14:22:43;1.67;;;1.10;;
2760;SDS011;15420;48.636;9.798;2022-10-16T14:28:05;6.00;;;1.40;;
2760;SDS011;15420;48.636;9.798;2022-10-16T14:33:32;2.70;;;1.50;;
2760;SDS011;15420;48.636;9.798;2022-10-16T14:39:16;1.30;;;1.20;;
2760;SDS011;15420;48.636;9.798;2022-10-16T14:41:45;1.30;;;1.20;;
2760;SDS011;15420;48.636;9.798;2022-10-16T14:44:13;7.57;;;1.80;;
2760;SDS011;15420;48.636;9.798;2022-10-16T14:46:42;2.43;;;1.43;;
2760;SDS011;15420;48.636;9.798;2022-10-16T14:51:38;3.77;;;1.40;;
2760;SDS011;15420;48.636;9.798;2022-10-16T14:54:07;1.30;;;1.20;;
2760;SDS011;15420;48.636;9.798;2022-10-16T14:56:41;1.30;;;1.20;;
2760;SDS011;15420;48.636;9.798;2022-10-16T14:59:16;1.30;;;1.20;;
2760;SDS011;15420;48.636;9.798;2022-10-16T15:02:02;1.33;;;1.23;;
2760;SDS011;15420;48.636;9.798;2022-10-16T15:04:41;2.30;;;1.50;;
2760;SDS011;15420;48.636;9.798;2022-10-16T15:07:10;2.13;;;1.63;;
2760;SDS011;15420;48.636;9.798;2022-10-16T15:09:38;1.40;;;1.30;;
2760;SDS011;15420;48.636;9.798;2022-10-16T15:12:07;2.37;;;1.40;;
2760;SDS011;15420;48.636;9.798;2022-10-16T15:14:33;3.57;;;1.60;;
2760;SDS011;15420;48.636;9.798;2022-10-16T15:17:04;1.50;;;1.40;;
2760;SDS011;15420;48.636;9.798;2022-10-16T15:19:30;2.60;;;1.57;;
2760;SDS011;15420;48.636;9.798;2022-10-16T15:21:56;1.10;;;1.00;;
2760;SDS011;15420;48.636;9.798;2022-10-16T15:24:23;3.73;;;1.50;;
2760;SDS011;15420;48.636;9.798;2022-10-16T15:26:51;8.93;;;1.87;;
2760;SDS011;15420;48.636;9.798;2022-10-16T15:29:17;1.37;;;1.27;;
2760;SDS011;15420;48.636;9.798;2022-10-16T15:31:46;1.43;;;1.30;;
2760;SDS011;15420;48.636;9.798;2022-10-16T15:34:14;1.60;;;1.50;;
2760;SDS011;15420;48.636;9.798;2022-10-16T15:36:41;4.30;;;1.87;;
2760;SDS011;15420;48.636;9.798;2022-10-16T15:39:14;1.70;;;1.60;;
2760;SDS011;15420;48.636;9.798;2022-10-16T15:41:42;5.37;;;3.73;;
2760;SDS011;15420;48.636;9.798;2022-10-16T15:44:10;3.00;;;2.63;;
2760;SDS011;15420;48.636;9.798;2022-10-16T15:46:36;2.50;;;1.57;;
2760;SDS011;15420;48.636;9.798;2022-10-16T15:49:04;1.83;;;1.70;;
2760;SDS011;15420;48.636;9.798;2022-10-16T15:51:33;3.63;;;1.30;;
2760;SDS011;15420;48.636;9.798;2022-10-16T15:54:04;1.90;;;1.70;;
2760;SDS011;15420;48.636;9.798;2022-10-16T15:56:35;5.07;;;2.30;;
2760;SDS011;15420;48.636;9.798;2022-10-16T15:59:04;2.20;;;1.97;;
2760;SDS011;15420;48.636;9.798;2022-10-16T16:01:33;3.13;;;2.23;;
2760;SDS011;15420;48.636;9.798;2022-10-16T16:04:03;2.83;;;2.33;;
2760;SDS011;15420;48.636;9.798;2022-10-16T16:06:31;2.70;;;1.60;;
2760;SDS011;15420;48.636;9.798;2022-10-16T16:08:58;5.13;;;1.60;;
2760;SDS011;15420;48.636;9.798;2022-10-16T16:11:24;2.60;;;1.77;;
2760;SDS011;15420;48.636;9.798;2022-10-16T16:13:53;2.60;;;2.00;;
2760;SDS011;15420;48.636;9.798;2022-10-16T16:16:20;6.20;;;2.30;;
2760;SDS011;15420;48.636;9.798;2022-10-16T16:18:46;2.90;;;2.20;;
2760;SDS011;15420;48.636;9.798;2022-10-16T16:21:14;2.30;;;2.10;;
2760;SDS011;15420;48.636;9.798;2022-10-16T16:23:45;1.67;;;1.57;;
2760;SDS011;15420;48.636;9.798;2022-10-16T16:28:40;2.50;;;2.10;;
2760;SDS011;15420;48.636;9.798;2022-10-16T16:31:09;6.33;;;5.50;;
2760;SDS011;15420;48.636;9.798;2022-10-16T16:33:35;14.13;;;5.00;;
2760;SDS011;15420;48.636;9.798;2022-10-16T16:36:02;5.97;;;3.23;;
2760;SDS011;15420;48.636;9.798;2022-10-16T16:38:31;3.43;;;2.77;;
2760;SDS011;15420;48.636;9.798;2022-10-16T16:41:00;8.60;;;2.93;;
2760;SDS011;15420;48.636;9.798;2022-10-16T16:43:39;5.47;;;2.47;;
2760;SDS011;15420;48.636;9.798;2022-10-16T16:46:05;3.87;;;2.70;;
2760;SDS011;15420;48.636;9.798;2022-10-16T16:48:34;4.00;;;2.47;;
2760;SDS011;15420;48.636;9.798;2022-10-16T16:51:07;4.53;;;2.40;;
2760;SDS011;15420;48.636;9.798;2022-10-16T16:53:48;3.00;;;2.60;;
2760;SDS011;15420;48.636;9.798;2022-10-16T16:56:16;11.10;;;5.20;;
2760;SDS011;15420;48.636;9.798;2022-10-16T16:58:50;5.03;;;4.50;;
2760;SDS011;15420;48.636;9.798;2022-10-16T17:01:20;3.63;;;3.30;;
2760;SDS011;15420;48.636;9.798;2022-10-16T17:03:49;2.20;;;2.00;;
2760;SDS011;15420;48.636;9.798;2022-10-16T17:06:17;2.47;;;2.27;;
2760;SDS011;15420;48.636;9.798;2022-10-16T17:08:44;2.50;;;2.00;;
2760;SDS011;15420;48.636;9.798;2022-10-16T17:11:13;2.23;;;1.80;;
2760;SDS011;15420;48.636;9.798;2022-10-16T17:13:44;5.63;;;2.67;;
2760;SDS011;15420;48.636;9.798;2022-10-16T17:16:13;2.90;;;2.57;;
2760;SDS011;15420;48.636;9.798;2022-10-16T17:18:42;4.13;;;3.50;;
2760;SDS011;15420;48.636;9.798;2022-10-16T17:21:09;7.40;;;3.43;;
2760;SDS011;15420;48.636;9.798;2022-10-16T17:23:40;3.43;;;3.23;;
2760;SDS011;15420;48.636;9.798;2022-10-16T17:26:07;17.03;;;12.07;;
2760;SDS011;15420;48.636;9.798;2022-10-16T17:28:38;10.00;;;5.50;;
2760;SDS011;15420;48.636;9.798;2022-10-16T17:31:15;3.90;;;3.10;;
2760;SDS011;15420;48.636;9.798;2022-10-16T17:33:43;3.23;;;2.90;;
2760;SDS011;15420;48.636;9.798;2022-10-16T17:36:11;4.20;;;3.20;;
2760;SDS011;15420;48.636;9.798;2022-10-16T17:38:40;12.43;;;2.87;;
2760;SDS011;15420;48.636;9.798;2022-10-16T17:41:13;5.50;;;2.80;;
2760;SDS011;15420;48.636;9.798;2022-10-16T17:43:47;2.43;;;2.20;;
2760;SDS011;15420;48.636;9.798;2022-10-16T17:46:17;3.83;;;2.60;;
2760;SDS011;15420;48.636;9.798;2022-10-16T17:48:48;8.37;;;2.40;;
2760;SDS011;15420;48.636;9.798;2022-10-16T17:51:18;4.23;;;3.07;;
2760;SDS011;15420;48.636;9.798;2022-10-16T17:53:49;3.43;;;3.10;;
2760;SDS011;15420;48.636;9.798;2022-10-16T17:56:17;6.20;;;2.67;;
2760;SDS011;15420;48.636;9.798;2022-10-16T17:58:48;2.53;;;2.33;;
2760;SDS011;15420;48.636;9.798;2022-10-16T18:01:19;6.37;;;2.50;;
2760;SDS011;15420;48.636;9.798;2022-10-16T18:03:50;2.90;;;2.70;;
2760;SDS011;15420;48.636;9.798;2022-10-16T18:06:22;3.80;;;2.90;;
2760;SDS011;15420;48.636;9.798;2022-10-16T18:08:50;2.73;;;2.53;;
2760;SDS011;15420;48.636;9.798;2022-10-16T18:11:17;3.70;;;2.20;;